Time;durP1;ratioP1;P1;durP2;ratioP2;P2;SDS_P1;SDS_P2;PMS_P1;PMS_P2;Temp;Humidity;BMP_temperature;BMP_pressure;BME280_temperature;BME280_humidity;BME280_pressure;Samples;Min_cycle;Max_cycle;Signal;HPM_P1;HPM_P2
2021/03/24 05:49:01;;;;;;;12.05;7.32;;;;;;;;;;6274881;22;20087;-77
2021/03/24 05:51:51;;;;;;;10.88;7.03;;;;;;;;;;6274753;22;20008;-77
2021/03/24 05:54:35;;;;;;;12.43;7.03;;;;;;;;;;6274089;22;20074;-78
2021/03/24 05:57:10;;;;;;;15.40;7.28;;;;;;;;;;6274065;22;19995;-77
2021/03/24 05:59:46;;;;;;;14.60;6.85;;;;;;;;;;6274585;22;20003;-77
2021/03/24 06:02:20;;;;;;;10.27;7.40;;;;;;;;;;6275121;22;20010;-78
2021/03/24 06:05:01;;;;;;;12.80;7.20;;;;;;;;;;6252215;22;20003;-78
2021/03/24 06:07:38;;;;;;;12.70;6.63;;;;;;;;;;6279618;22;20041;-78
2021/03/24 06:10:12;;;;;;;11.50;6.25;;;;;;;;;;6279772;22;20333;-78
2021/03/24 06:12:41;;;;;;;15.23;6.82;;;;;;;;;;6279663;22;19999;-78
2021/03/24 06:15:07;;;;;;;15.15;7.80;;;;;;;;;;6278277;22;20396;-78
2021/03/24 06:17:51;;;;;;;11.55;7.55;;;;;;;;;;6278040;22;19995;-78
2021/03/24 06:20:20;;;;;;;12.35;7.25;;;;;;;;;;6278292;22;20450;-78
2021/03/24 06:22:56;;;;;;;12.88;6.95;;;;;;;;;;6277218;22;20030;-78
2021/03/24 06:25:27;;;;;;;15.68;8.00;;;;;;;;;;6276247;22;20003;-78
2021/03/24 06:30:20;;;;;;;11.60;6.82;;;;;;;;;;5115220;27;20349;-80
2021/03/24 06:33:01;;;;;;;13.13;7.55;;;;;;;;;;5118551;27;20029;-79
2021/03/24 06:35:36;;;;;;;13.80;7.27;;;;;;;;;;5117583;28;20035;-80
2021/03/24 06:38:20;;;;;;;17.63;9.60;;;;;;;;;;5117983;28;20253;-80
2021/03/24 06:41:04;;;;;;;18.58;10.88;;;;;;;;;;5113768;28;20027;-80
2021/03/24 06:43:45;;;;;;;21.98;10.98;;;;;;;;;;5114130;28;20027;-80
2021/03/24 06:46:29;;;;;;;18.08;11.52;;;;;;;;;;5122076;28;20049;-80
2021/03/24 06:49:14;;;;;;;16.20;9.40;;;;;;;;;;5101664;28;20098;-80
2021/03/24 06:51:46;;;;;;;15.73;8.30;;;;;;;;;;5105901;28;20026;-81
2021/03/24 06:54:11;;;;;;;;;;;;;;;;;;5110232;28;20774;-81
2021/03/24 06:56:56;;;;;;;15.10;8.55;;;;;;;;;;5106712;28;19919;-81
2021/03/24 06:59:34;;;;;;;15.38;8.20;;;;;;;;;;5111294;28;20028;-80
2021/03/24 07:02:23;;;;;;;16.60;7.88;;;;;;;;;;5102632;28;20381;-80
2021/03/24 07:05:07;;;;;;;13.50;7.80;;;;;;;;;;5067555;28;20040;-81
2021/03/24 07:07:39;;;;;;;12.75;7.18;;;;;;;;;;5098953;28;20085;-81
2021/03/24 07:10:25;;;;;;;11.85;7.20;;;;;;;;;;5096663;28;20074;-81
2021/03/24 07:13:09;;;;;;;17.05;8.45;;;;;;;;;;5109674;28;20448;-81
2021/03/24 07:15:48;;;;;;;15.48;9.38;;;;;;;;;;5106001;28;20046;-81
2021/03/24 07:18:32;;;;;;;17.05;10.38;;;;;;;;;;5104676;28;20387;-80
2021/03/24 07:21:06;;;;;;;19.83;9.13;;;;;;;;;;5106861;28;20020;-80
2021/03/24 07:24:00;;;;;;;17.38;9.70;;;;;;;;;;5108058;28;20023;-80
2021/03/24 07:26:39;;;;;;;16.30;9.98;;;;;;;;;;5090957;28;20036;-82
2021/03/24 07:29:10;;;;;;;16.30;8.60;;;;;;;;;;5106626;28;20751;-81
2021/03/24 07:31:43;;;;;;;17.42;8.88;;;;;;;;;;5107574;28;20027;-81
2021/03/24 07:34:09;;;;;;;12.50;7.45;;;;;;;;;;5103142;28;20020;-81
2021/03/24 07:36:42;;;;;;;12.30;7.68;;;;;;;;;;5113208;28;20057;-81
2021/03/24 07:39:16;;;;;;;15.93;8.38;;;;;;;;;;5101160;28;20066;-81
2021/03/24 07:42:01;;;;;;;14.93;8.88;;;;;;;;;;5087060;28;20036;-81
2021/03/24 07:44:45;;;;;;;13.75;8.57;;;;;;;;;;5084760;28;20016;-81
2021/03/24 07:47:13;;;;;;;13.90;7.82;;;;;;;;;;5088435;28;20487;-81
2021/03/24 07:49:58;;;;;;;14.05;7.38;;;;;;;;;;5082114;28;20510;-81
2021/03/24 07:52:36;;;;;;;13.27;7.43;;;;;;;;;;5091366;28;20022;-82
2021/03/24 07:55:19;;;;;;;15.25;9.07;;;;;;;;;;5098231;28;20032;-80
2021/03/24 07:57:54;;;;;;;13.95;8.80;;;;;;;;;;5100790;28;20054;-79
2021/03/24 08:00:20;;;;;;;19.80;8.50;;;;;;;;;;5104254;28;20012;-79
2021/03/24 08:02:45;;;;;;;14.43;7.88;;;;;;;;;;5100129;28;20038;-79
2021/03/24 08:05:32;;;;;;;13.70;7.93;;;;;;;;;;5097593;28;20024;-79
2021/03/24 08:08:00;;;;;;;16.67;8.45;;;;;;;;;;5089214;28;20025;-79
2021/03/24 08:10:39;;;;;;;14.35;8.73;;;;;;;;;;5082090;28;20048;-79
2021/03/24 08:13:13;;;;;;;12.48;7.90;;;;;;;;;;5092123;28;20022;-80
2021/03/24 08:15:43;;;;;;;15.63;8.32;;;;;;;;;;5092576;28;20016;-80
2021/03/24 08:18:35;;;;;;;15.10;8.43;;;;;;;;;;5100550;28;20051;-79
2021/03/24 08:21:05;;;;;;;14.95;8.25;;;;;;;;;;5075940;28;20027;-80
2021/03/24 08:23:50;;;;;;;16.25;8.68;;;;;;;;;;5102000;28;20021;-79
2021/03/24 08:26:19;;;;;;;15.43;8.75;;;;;;;;;;5116746;28;20022;-81
2021/03/24 08:28:54;;;;;;;15.35;8.80;;;;;;;;;;5112292;28;20023;-80
2021/03/24 08:31:27;;;;;;;15.75;8.93;;;;;;;;;;5091898;28;20036;-80
2021/03/24 08:34:11;;;;;;;17.50;9.45;;;;;;;;;;5086102;28;20036;-81
2021/03/24 08:36:40;;;;;;;16.25;8.13;;;;;;;;;;5092717;28;20019;-80
2021/03/24 08:39:24;;;;;;;21.50;10.07;;;;;;;;;;5094357;28;20016;-82
2021/03/24 08:42:08;;;;;;;17.40;9.57;;;;;;;;;;5097615;28;20012;-81
2021/03/24 08:44:50;;;;;;;19.35;10.07;;;;;;;;;;5092468;28;20472;-81
2021/03/24 08:47:19;;;;;;;16.38;9.25;;;;;;;;;;5093808;28;20028;-82
2021/03/24 08:49:49;;;;;;;14.23;8.40;;;;;;;;;;5100439;28;20019;-81
2021/03/24 08:52:18;;;;;;;15.05;9.05;;;;;;;;;;5090434;28;20493;-81
2021/03/24 08:54:59;;;;;;;14.52;8.65;;;;;;;;;;5100300;28;20024;-83
2021/03/24 08:57:31;;;;;;;15.70;9.57;;;;;;;;;;5100853;28;20039;-82
2021/03/24 09:00:09;;;;;;;15.85;8.88;;;;;;;;;;5109312;28;20020;-81
2021/03/24 09:02:54;;;;;;;16.58;8.82;;;;;;;;;;5108516;28;20023;-81
2021/03/24 09:05:28;;;;;;;16.02;8.50;;;;;;;;;;5115192;28;20034;-83
2021/03/24 09:08:13;;;;;;;15.27;8.27;;;;;;;;;;5104028;28;20028;-81
2021/03/24 09:13:09;;;;;;;16.88;8.82;;;;;;;;;;5119973;27;20401;-79
2021/03/24 09:15:44;;;;;;;15.15;9.07;;;;;;;;;;5102136;28;20031;-79
2021/03/24 09:18:10;;;;;;;15.70;8.43;;;;;;;;;;5084837;28;20051;-79
2021/03/24 09:20:55;;;;;;;15.82;9.38;;;;;;;;;;5093494;28;20031;-81
2021/03/24 09:23:33;;;;;;;18.23;8.93;;;;;;;;;;5096952;28;20024;-82
2021/03/24 09:26:18;;;;;;;11.05;6.78;;;;;;;;;;5099957;28;20063;-84
2021/03/24 09:29:04;;;;;;;11.40;6.65;;;;;;;;;;5093022;28;20021;-81
2021/03/24 09:31:39;;;;;;;13.27;6.35;;;;;;;;;;5092896;28;20025;-81
2021/03/24 09:34:10;;;;;;;10.07;5.95;;;;;;;;;;5090741;28;20039;-81
2021/03/24 09:36:45;;;;;;;11.45;6.88;;;;;;;;;;5108286;28;20016;-80
2021/03/24 09:39:23;;;;;;;14.25;5.95;;;;;;;;;;5088128;28;20020;-83
2021/03/24 09:42:24;;;;;;;8.60;5.28;;;;;;;;;;5088642;28;20078;-83
2021/03/24 09:45:04;;;;;;;8.88;5.45;;;;;;;;;;4998596;28;20041;-80
2021/03/24 09:47:33;;;;;;;10.77;6.25;;;;;;;;;;5085047;28;20381;-82
2021/03/24 09:50:14;;;;;;;10.48;6.25;;;;;;;;;;5097894;28;20028;-82
2021/03/24 09:52:49;;;;;;;10.20;6.67;;;;;;;;;;5081068;28;20020;-82
2021/03/24 09:55:29;;;;;;;12.40;6.65;;;;;;;;;;5090258;28;20027;-82
2021/03/24 09:58:14;;;;;;;15.63;7.68;;;;;;;;;;5088664;28;20771;-82
2021/03/24 10:00:50;;;;;;;11.90;7.05;;;;;;;;;;5088692;28;20020;-82
2021/03/24 10:03:20;;;;;;;14.38;7.88;;;;;;;;;;5088526;28;20427;-82
2021/03/24 10:05:56;;;;;;;15.73;6.40;;;;;;;;;;5090077;28;20012;-82
2021/03/24 10:08:29;;;;;;;14.00;8.20;;;;;;;;;;5095286;28;20250;-82
2021/03/24 10:11:00;;;;;;;21.05;9.60;;;;;;;;;;5090874;28;20388;-82
2021/03/24 10:13:26;;;;;;;;;;;;;;;;;;5091870;28;20626;-82
2021/03/24 10:16:04;;;;;;;14.38;8.45;;;;;;;;;;5090895;28;19917;-81
2021/03/24 10:18:34;;;;;;;19.10;9.32;;;;;;;;;;5093076;28;20021;-81
2021/03/24 10:21:06;;;;;;;19.73;10.60;;;;;;;;;;5086927;28;20029;-79
2021/03/24 10:23:55;;;;;;;17.70;8.25;;;;;;;;;;5083727;28;20680;-82
2021/03/24 10:26:24;;;;;;;16.77;9.30;;;;;;;;;;5063566;28;20040;-82
2021/03/24 10:28:55;;;;;;;13.40;8.07;;;;;;;;;;5077751;28;20048;-83
2021/03/24 10:31:26;;;;;;;19.73;8.65;;;;;;;;;;5078317;28;20024;-83
2021/03/24 10:33:54;;;;;;;15.13;8.93;;;;;;;;;;5073771;28;20059;-84
2021/03/24 10:36:23;;;;;;;14.50;7.38;;;;;;;;;;5071250;28;20024;-84
2021/03/24 10:38:52;;;;;;;14.02;7.28;;;;;;;;;;5074502;28;20017;-84
2021/03/24 10:41:40;;;;;;;15.23;7.43;;;;;;;;;;5079824;28;20036;-84
2021/03/24 10:44:12;;;;;;;19.90;7.60;;;;;;;;;;5076695;28;20039;-82
2021/03/24 10:46:41;;;;;;;10.95;6.63;;;;;;;;;;5077922;28;20016;-84
2021/03/24 10:49:14;;;;;;;12.15;7.00;;;;;;;;;;5071649;28;20486;-84
2021/03/24 10:51:54;;;;;;;12.45;7.38;;;;;;;;;;5072039;28;20056;-84
2021/03/24 10:54:28;;;;;;;15.65;7.78;;;;;;;;;;5084281;28;20389;-84
2021/03/24 10:57:00;;;;;;;11.60;6.90;;;;;;;;;;5070966;28;20021;-84
2021/03/24 10:59:49;;;;;;;14.35;6.82;;;;;;;;;;5075516;28;20016;-84
2021/03/24 11:02:21;;;;;;;11.60;6.05;;;;;;;;;;5064351;28;20041;-84
2021/03/24 11:05:08;;;;;;;14.40;6.95;;;;;;;;;;5082545;28;20028;-84
2021/03/24 11:07:37;;;;;;;10.13;5.50;;;;;;;;;;5074361;28;20085;-85
2021/03/24 11:10:12;;;;;;;11.63;6.55;;;;;;;;;;5072199;28;20051;-85
2021/03/24 11:12:45;;;;;;;10.75;6.50;;;;;;;;;;5069518;28;20064;-86
2021/03/24 11:15:19;;;;;;;14.35;6.90;;;;;;;;;;5071027;28;20032;-86
2021/03/24 11:17:46;;;;;;;13.05;7.10;;;;;;;;;;5074767;28;20062;-86
2021/03/24 11:20:32;;;;;;;12.90;6.47;;;;;;;;;;5071370;28;20028;-86
2021/03/24 11:23:01;;;;;;;10.15;6.07;;;;;;;;;;5074750;28;20101;-85
2021/03/24 11:25:30;;;;;;;11.57;6.40;;;;;;;;;;5071628;28;20045;-86
2021/03/24 11:27:59;;;;;;;10.02;5.63;;;;;;;;;;5069921;28;20037;-86
2021/03/24 11:30:44;;;;;;;9.68;5.18;;;;;;;;;;5069845;28;20020;-87
2021/03/24 11:33:13;;;;;;;9.68;6.10;;;;;;;;;;5061416;28;20028;-86
2021/03/24 11:35:44;;;;;;;9.75;5.40;;;;;;;;;;5067294;28;20488;-87
2021/03/24 11:38:09;;;;;;;11.85;6.75;;;;;;;;;;5066634;28;20028;-87
2021/03/24 11:40:38;;;;;;;10.60;5.75;;;;;;;;;;5071841;28;20650;-87
2021/03/24 11:43:06;;;;;;;7.28;5.18;;;;;;;;;;5067963;28;20028;-86
2021/03/24 11:45:33;;;;;;;8.95;5.53;;;;;;;;;;5068459;28;20377;-87
2021/03/24 11:48:16;;;;;;;10.63;5.80;;;;;;;;;;5067063;28;20064;-87
2021/03/24 11:50:53;;;;;;;10.48;5.75;;;;;;;;;;5069901;28;20550;-87
2021/03/24 11:53:27;;;;;;;10.50;5.72;;;;;;;;;;5068080;28;20032;-87
2021/03/24 11:55:59;;;;;;;10.63;5.75;;;;;;;;;;5072567;28;20093;-87
2021/03/24 11:58:43;;;;;;;10.60;5.03;;;;;;;;;;5071195;28;20056;-86
2021/03/24 12:01:35;;;;;;;12.27;5.60;;;;;;;;;;5070240;28;20030;-87
2021/03/24 12:04:19;;;;;;;9.70;5.05;;;;;;;;;;5067206;28;20526;-88
2021/03/24 12:06:53;;;;;;;10.65;5.97;;;;;;;;;;5072517;28;20074;-87
2021/03/24 12:09:21;;;;;;;12.35;5.07;;;;;;;;;;5071000;28;20481;-86
2021/03/24 12:11:46;;;;;;;9.63;5.72;;;;;;;;;;5068537;28;20523;-85
2021/03/24 12:14:12;;;;;;;8.02;5.38;;;;;;;;;;5069556;28;20041;-87
2021/03/24 12:16:43;;;;;;;10.93;4.90;;;;;;;;;;5068548;28;20024;-83
2021/03/24 12:19:29;;;;;;;8.20;4.88;;;;;;;;;;5075990;28;20431;-84
2021/03/24 12:21:56;;;;;;;10.80;5.03;;;;;;;;;;5070766;28;20442;-85
2021/03/24 12:24:27;;;;;;;7.90;4.82;;;;;;;;;;5069827;28;20033;-82
2021/03/24 12:26:53;;;;;;;8.63;4.90;;;;;;;;;;5072321;28;20043;-83
2021/03/24 12:29:26;;;;;;;6.72;4.20;;;;;;;;;;5072306;28;20366;-83
2021/03/24 12:32:15;;;;;;;7.95;4.50;;;;;;;;;;5072041;28;20610;-83
2021/03/24 12:34:43;;;;;;;10.02;5.10;;;;;;;;;;5077665;28;20052;-85
2021/03/24 12:37:22;;;;;;;7.13;4.57;;;;;;;;;;5075569;28;20107;-83
2021/03/24 12:39:50;;;;;;;12.20;4.95;;;;;;;;;;5073327;28;20054;-81
2021/03/24 12:42:29;;;;;;;8.40;4.80;;;;;;;;;;5075213;28;20487;-83
2021/03/24 12:44:55;;;;;;;9.80;4.50;;;;;;;;;;5069956;28;20032;-86
2021/03/24 12:47:38;;;;;;;8.80;5.35;;;;;;;;;;5071261;28;20030;-86
2021/03/24 12:50:14;;;;;;;10.90;6.20;;;;;;;;;;5071171;28;20036;-85
2021/03/24 12:52:48;;;;;;;9.48;4.70;;;;;;;;;;5070177;28;20035;-84
2021/03/24 12:55:15;;;;;;;9.70;4.90;;;;;;;;;;5071051;28;20032;-84
2021/03/24 12:57:49;;;;;;;9.75;5.88;;;;;;;;;;5071444;28;20257;-83
2021/03/24 13:00:42;;;;;;;8.68;4.65;;;;;;;;;;5072772;28;20040;-83
2021/03/24 13:03:35;;;;;;;7.35;4.43;;;;;;;;;;5058863;28;20493;-80
2021/03/24 13:06:07;;;;;;;8.93;4.80;;;;;;;;;;5062267;28;20029;-84
2021/03/24 13:08:35;;;;;;;7.00;4.05;;;;;;;;;;5082047;28;20035;-83
2021/03/24 13:11:07;;;;;;;8.55;4.60;;;;;;;;;;5089083;28;20028;-83
2021/03/24 13:13:33;;;;;;;6.60;4.18;;;;;;;;;;5078647;28;20077;-83
2021/03/24 13:16:00;;;;;;;11.48;5.50;;;;;;;;;;5093755;28;20111;-83
2021/03/24 13:18:32;;;;;;;13.15;5.78;;;;;;;;;;5081011;28;20120;-83
2021/03/24 13:21:05;;;;;;;7.15;3.95;;;;;;;;;;5095940;28;20038;-83
2021/03/24 13:23:36;;;;;;;7.63;4.63;;;;;;;;;;5078389;28;20020;-84
2021/03/24 13:26:07;;;;;;;8.65;5.30;;;;;;;;;;5079729;28;20032;-83
2021/03/24 13:28:40;;;;;;;10.35;5.47;;;;;;;;;;5078908;28;20444;-83
2021/03/24 13:31:11;;;;;;;7.70;4.75;;;;;;;;;;5081705;28;20085;-83
2021/03/24 13:34:03;;;;;;;8.35;4.90;;;;;;;;;;5075792;28;20019;-83
2021/03/24 13:36:35;;;;;;;7.38;4.30;;;;;;;;;;5054354;28;20032;-84
2021/03/24 13:39:07;;;;;;;9.18;5.80;;;;;;;;;;5082565;28;20028;-81
2021/03/24 13:41:34;;;;;;;9.60;5.18;;;;;;;;;;5078549;28;20040;-81
2021/03/24 13:44:18;;;;;;;8.93;4.82;;;;;;;;;;5083381;28;20026;-81
2021/03/24 13:46:46;;;;;;;8.13;4.97;;;;;;;;;;5074586;28;20059;-82
2021/03/24 13:49:21;;;;;;;8.88;5.50;;;;;;;;;;5069282;28;20106;-83
2021/03/24 13:51:48;;;;;;;9.52;5.70;;;;;;;;;;5065572;28;20025;-83
2021/03/24 13:54:16;;;;;;;8.77;4.93;;;;;;;;;;5066938;28;20040;-82
2021/03/24 13:56:42;;;;;;;11.23;5.68;;;;;;;;;;5085403;28;20025;-83
2021/03/24 13:59:18;;;;;;;7.88;5.28;;;;;;;;;;5075643;28;20063;-83
2021/03/24 14:01:50;;;;;;;9.55;5.15;;;;;;;;;;5070735;28;20024;-83
2021/03/24 14:04:28;;;;;;;10.38;5.00;;;;;;;;;;5069359;28;20078;-83
2021/03/24 14:07:12;;;;;;;10.15;5.65;;;;;;;;;;5072823;28;20059;-83
2021/03/24 14:09:44;;;;;;;10.52;6.20;;;;;;;;;;5073786;28;20020;-83
2021/03/24 14:12:22;;;;;;;12.15;5.35;;;;;;;;;;5081722;28;20115;-83
2021/03/24 14:15:16;;;;;;;8.57;4.82;;;;;;;;;;5073312;28;20024;-83
2021/03/24 14:17:45;;;;;;;7.80;4.50;;;;;;;;;;5076972;28;20480;-82
2021/03/24 14:20:29;;;;;;;9.55;4.43;;;;;;;;;;5066054;28;20032;-83
2021/03/24 14:22:57;;;;;;;10.70;5.32;;;;;;;;;;5081097;28;20029;-83
2021/03/24 14:25:29;;;;;;;9.95;5.28;;;;;;;;;;5087973;28;20040;-83
2021/03/24 14:27:55;;;;;;;10.05;5.88;;;;;;;;;;5068896;28;20020;-82
2021/03/24 14:30:25;;;;;;;15.35;6.22;;;;;;;;;;5081222;28;20036;-83
2021/03/24 14:33:10;;;;;;;8.77;5.03;;;;;;;;;;5087241;28;20039;-82
2021/03/24 14:35:35;;;;;;;7.15;4.70;;;;;;;;;;5074321;28;20492;-83
2021/03/24 14:38:10;;;;;;;9.32;5.35;;;;;;;;;;5072716;28;20058;-83
2021/03/24 14:40:45;;;;;;;9.00;4.85;;;;;;;;;;5072818;28;20025;-83
2021/03/24 14:43:11;;;;;;;11.05;5.93;;;;;;;;;;5080051;28;20023;-83
2021/03/24 14:45:47;;;;;;;8.30;5.10;;;;;;;;;;5071944;28;20081;-83
2021/03/24 14:48:13;;;;;;;8.15;5.15;;;;;;;;;;5079694;28;20028;-83
2021/03/24 14:50:41;;;;;;;11.10;4.93;;;;;;;;;;5090720;28;20062;-83
2021/03/24 14:53:23;;;;;;;8.98;5.32;;;;;;;;;;5099872;28;20024;-81
2021/03/24 14:55:58;;;;;;;7.07;4.32;;;;;;;;;;5072802;28;20477;-82
2021/03/24 14:58:33;;;;;;;8.73;5.00;;;;;;;;;;5072994;28;20372;-82
2021/03/24 15:01:13;;;;;;;9.80;4.95;;;;;;;;;;5073246;28;20028;-82
2021/03/24 15:03:39;;;;;;;9.75;5.38;;;;;;;;;;5070161;28;20113;-82
2021/03/24 15:06:06;;;;;;;10.38;5.07;;;;;;;;;;5078393;28;20028;-82
2021/03/24 15:08:32;;;;;;;8.60;4.18;;;;;;;;;;5077289;28;20061;-82
2021/03/24 15:10:58;;;;;;;9.65;5.53;;;;;;;;;;5072385;28;20541;-82
2021/03/24 15:13:47;;;;;;;8.80;4.38;;;;;;;;;;5079945;28;20039;-82
2021/03/24 15:16:15;;;;;;;8.15;4.90;;;;;;;;;;5049573;28;20395;-81
2021/03/24 15:18:46;;;;;;;7.78;4.70;;;;;;;;;;5080855;28;20020;-81
2021/03/24 15:21:25;;;;;;;9.63;5.05;;;;;;;;;;5086675;28;20444;-82
2021/03/24 15:24:00;;;;;;;9.77;5.57;;;;;;;;;;5069502;28;20058;-82
2021/03/24 15:26:25;;;;;;;8.93;5.03;;;;;;;;;;5086756;28;20251;-82
2021/03/24 15:29:11;;;;;;;9.65;5.03;;;;;;;;;;5081216;28;20048;-83
2021/03/24 15:31:47;;;;;;;7.63;4.72;;;;;;;;;;5088419;28;20079;-82
2021/03/24 15:34:24;;;;;;;7.65;4.38;;;;;;;;;;5076694;28;20020;-86
2021/03/24 15:36:53;;;;;;;8.95;5.28;;;;;;;;;;5079774;28;20029;-85
2021/03/24 15:39:28;;;;;;;8.35;5.03;;;;;;;;;;5083326;28;20017;-84
2021/03/24 15:41:53;;;;;;;8.32;4.72;;;;;;;;;;5079163;28;20020;-83
2021/03/24 15:44:33;;;;;;;10.00;4.50;;;;;;;;;;5077403;28;20132;-84
2021/03/24 15:47:13;;;;;;;7.47;3.97;;;;;;;;;;5080801;28;20020;-84
2021/03/24 15:49:39;;;;;;;8.90;4.53;;;;;;;;;;5079810;28;20021;-83
2021/03/24 15:52:20;;;;;;;7.93;4.63;;;;;;;;;;5081116;28;20107;-85
2021/03/24 15:55:00;;;;;;;9.35;4.85;;;;;;;;;;5080729;28;20033;-83
2021/03/24 15:57:39;;;;;;;9.55;4.80;;;;;;;;;;5081782;28;20016;-84
2021/03/24 16:00:13;;;;;;;6.82;4.18;;;;;;;;;;5075492;28;20362;-83
2021/03/24 16:02:39;;;;;;;9.10;5.05;;;;;;;;;;5077333;28;20020;-82
2021/03/24 16:05:05;;;;;;;7.05;4.63;;;;;;;;;;5082498;28;19954;-81
2021/03/24 16:07:36;;;;;;;9.35;4.55;;;;;;;;;;5092288;28;20073;-84
2021/03/24 16:10:16;;;;;;;7.53;4.30;;;;;;;;;;5082885;28;20054;-83
2021/03/24 16:12:42;;;;;;;6.43;3.80;;;;;;;;;;5092559;28;20020;-82
2021/03/24 16:15:27;;;;;;;9.38;4.55;;;;;;;;;;5085094;28;20047;-81
2021/03/24 16:18:09;;;;;;;7.80;4.47;;;;;;;;;;5080486;28;20024;-82
2021/03/24 16:20:57;;;;;;;9.57;4.55;;;;;;;;;;5092064;28;20012;-82
2021/03/24 16:23:32;;;;;;;10.23;4.72;;;;;;;;;;5054485;28;20043;-82
2021/03/24 16:26:00;;;;;;;8.20;4.97;;;;;;;;;;5086707;28;20023;-83
2021/03/24 16:28:46;;;;;;;7.80;4.45;;;;;;;;;;5083948;28;20082;-83
2021/03/24 16:31:32;;;;;;;8.38;4.07;;;;;;;;;;5073016;28;20063;-83
2021/03/24 16:34:12;;;;;;;6.78;4.15;;;;;;;;;;5082069;28;20477;-83
2021/03/24 16:36:57;;;;;;;5.80;3.75;;;;;;;;;;5077959;28;20361;-83
2021/03/24 16:41:40;;;;;;;7.00;4.43;;;;;;;;;;5089759;28;20376;-84
2021/03/24 16:44:23;;;;;;;7.57;4.40;;;;;;;;;;5096115;28;20040;-82
2021/03/24 16:47:07;;;;;;;7.38;4.18;;;;;;;;;;5093844;28;20059;-80
2021/03/24 16:49:33;;;;;;;9.13;4.93;;;;;;;;;;5111775;28;20034;-83
2021/03/24 16:52:04;;;;;;;6.50;4.03;;;;;;;;;;5106901;28;20011;-83
2021/03/24 16:54:33;;;;;;;5.00;3.50;;;;;;;;;;5090273;28;20032;-83
2021/03/24 16:57:05;;;;;;;7.05;4.13;;;;;;;;;;5107577;28;20022;-84
2021/03/24 16:59:30;;;;;;;;;;;;;;;;;;5079870;28;20029;-84
2021/03/24 17:04:34;;;;;;;7.22;3.88;;;;;;;;;;5122720;27;20445;-84
2021/03/24 17:07:02;;;;;;;10.25;4.75;;;;;;;;;;5129728;28;20039;-83
2021/03/24 17:09:31;;;;;;;5.57;3.53;;;;;;;;;;5126765;27;20077;-83
2021/03/24 17:12:06;;;;;;;6.82;4.05;;;;;;;;;;5114406;28;20020;-83
2021/03/24 17:14:43;;;;;;;5.65;3.47;;;;;;;;;;5116563;28;20024;-82
2021/03/24 17:17:20;;;;;;;8.27;4.70;;;;;;;;;;5108903;28;20064;-84
2021/03/24 17:19:53;;;;;;;8.50;4.00;;;;;;;;;;5109826;28;20028;-84
2021/03/24 17:22:25;;;;;;;6.75;4.15;;;;;;;;;;5101538;28;20029;-85
2021/03/24 17:24:53;;;;;;;5.82;3.10;;;;;;;;;;5103979;28;20020;-83
2021/03/24 17:27:19;;;;;;;6.53;3.28;;;;;;;;;;5109629;28;20024;-85
2021/03/24 17:30:00;;;;;;;7.68;3.05;;;;;;;;;;5108175;28;20057;-85
2021/03/24 17:32:31;;;;;;;7.43;3.75;;;;;;;;;;5110639;28;20043;-85
2021/03/24 17:35:06;;;;;;;18.95;11.10;;;;;;;;;;5107041;28;20032;-84
2021/03/24 17:37:41;;;;;;;9.20;6.65;;;;;;;;;;5112244;28;20072;-84
2021/03/24 17:40:24;;;;;;;9.13;5.70;;;;;;;;;;5104646;28;20404;-83
2021/03/24 17:42:57;;;;;;;7.03;3.88;;;;;;;;;;5109263;28;20028;-83
2021/03/24 17:45:30;;;;;;;6.93;3.58;;;;;;;;;;5107813;28;20027;-83
2021/03/24 17:48:05;;;;;;;5.75;3.30;;;;;;;;;;5102696;28;20649;-84
2021/03/24 17:50:34;;;;;;;5.25;2.95;;;;;;;;;;5113966;28;20099;-85
2021/03/24 17:53:12;;;;;;;7.85;3.30;;;;;;;;;;5103582;28;20028;-85
2021/03/24 17:55:37;;;;;;;5.00;2.92;;;;;;;;;;5108613;28;20024;-85
2021/03/24 17:58:03;;;;;;;6.22;3.58;;;;;;;;;;5107460;28;20518;-85
2021/03/24 18:00:32;;;;;;;5.55;3.00;;;;;;;;;;5111202;28;20020;-83
2021/03/24 18:03:14;;;;;;;5.35;3.35;;;;;;;;;;5113041;28;20023;-84
2021/03/24 18:06:00;;;;;;;6.00;3.28;;;;;;;;;;5167267;22;20044;-83
2021/03/24 18:16:58;;;;;;;5.95;3.38;;;;;;;;;;5091847;28;20363;-85
2021/03/24 18:19:44;;;;;;;8.45;3.60;;;;;;;;;;5039090;28;20064;-85
2021/03/24 18:22:15;;;;;;;6.93;3.72;;;;;;;;;;5040152;28;20041;-85
2021/03/24 18:24:41;;;;;;;7.10;3.15;;;;;;;;;;5054780;28;20042;-85
2021/03/24 18:27:21;;;;;;;4.78;2.65;;;;;;;;;;5038484;28;20341;-85
2021/03/24 18:29:48;;;;;;;4.97;3.10;;;;;;;;;;5042398;28;20034;-85
2021/03/24 18:32:14;;;;;;;8.00;3.75;;;;;;;;;;5043911;28;20029;-85
2021/03/24 18:34:43;;;;;;;6.68;3.00;;;;;;;;;;5043121;28;20490;-85
2021/03/24 18:37:14;;;;;;;4.70;2.92;;;;;;;;;;5043598;28;20064;-85
2021/03/24 18:39:41;;;;;;;7.10;2.85;;;;;;;;;;5043809;28;20048;-86
2021/03/24 18:42:17;;;;;;;5.68;3.58;;;;;;;;;;5042501;28;20025;-85
2021/03/24 18:44:48;;;;;;;5.30;3.17;;;;;;;;;;5040212;28;20042;-85
2021/03/24 18:47:44;;;;;;;7.68;2.95;;;;;;;;;;5042308;28;20116;-87
2021/03/24 18:50:29;;;;;;;5.53;3.47;;;;;;;;;;5042753;28;20026;-85
2021/03/24 18:52:55;;;;;;;4.75;2.67;;;;;;;;;;5032878;28;20029;-85
2021/03/24 18:55:24;;;;;;;9.25;2.90;;;;;;;;;;5032018;28;20045;-84
2021/03/24 18:57:58;;;;;;;8.25;3.35;;;;;;;;;;5031914;28;20498;-84
2021/03/24 19:00:28;;;;;;;7.45;2.70;;;;;;;;;;5033243;28;20023;-84
2021/03/24 19:02:54;;;;;;;3.97;2.47;;;;;;;;;;5034250;28;20032;-84
2021/03/24 19:05:33;;;;;;;5.45;2.90;;;;;;;;;;5033546;28;20029;-84
2021/03/24 19:07:59;;;;;;;6.82;2.88;;;;;;;;;;5029962;28;20547;-84
2021/03/24 19:10:46;;;;;;;5.85;3.63;;;;;;;;;;5033840;28;20049;-84
2021/03/24 19:13:29;;;;;;;7.05;3.58;;;;;;;;;;5034023;28;20033;-85
2021/03/24 19:15:55;;;;;;;5.15;3.13;;;;;;;;;;5027489;28;20052;-84
2021/03/24 19:18:27;;;;;;;4.82;2.83;;;;;;;;;;5024992;28;20029;-84
2021/03/24 19:20:55;;;;;;;6.78;3.20;;;;;;;;;;5027763;28;20452;-85
2021/03/24 19:23:21;;;;;;;6.13;3.75;;;;;;;;;;5022368;28;20040;-84
2021/03/24 19:25:47;;;;;;;6.82;3.00;;;;;;;;;;5026946;28;20045;-84
2021/03/24 19:28:15;;;;;;;4.68;2.65;;;;;;;;;;5013627;28;20141;-84
2021/03/24 19:30:44;;;;;;;5.82;3.10;;;;;;;;;;5012594;28;20022;-84
2021/03/24 19:33:12;;;;;;;6.75;3.45;;;;;;;;;;5028328;28;20030;-84
2021/03/24 19:35:42;;;;;;;5.57;3.35;;;;;;;;;;5013051;28;20029;-84
2021/03/24 19:38:08;;;;;;;5.95;3.47;;;;;;;;;;5005374;28;20029;-85
2021/03/24 19:42:55;;;;;;;6.03;3.55;;;;;;;;;;5130159;27;20400;-84
2021/03/24 19:45:30;;;;;;;5.97;2.92;;;;;;;;;;5119619;28;20132;-84
2021/03/24 19:48:01;;;;;;;5.50;3.67;;;;;;;;;;5124993;27;20052;-84
2021/03/24 19:50:31;;;;;;;5.18;3.42;;;;;;;;;;5124647;27;20733;-84
2021/03/24 19:52:59;;;;;;;5.15;3.13;;;;;;;;;;5127897;28;20107;-84
2021/03/24 19:57:45;;;;;;;7.45;3.30;;;;;;;;;;5056216;28;20355;-84
2021/03/24 20:00:17;;;;;;;6.53;3.45;;;;;;;;;;5045751;28;20368;-85
2021/03/24 20:02:57;;;;;;;6.72;3.10;;;;;;;;;;5041747;28;20083;-84
2021/03/24 20:05:27;;;;;;;6.28;3.42;;;;;;;;;;5034475;28;20022;-84
2021/03/24 20:08:11;;;;;;;5.35;3.13;;;;;;;;;;5030312;28;20029;-84
2021/03/24 20:10:47;;;;;;;7.38;3.40;;;;;;;;;;5034893;28;20489;-84
2021/03/24 20:13:22;;;;;;;4.80;2.80;;;;;;;;;;5041401;28;20116;-84
2021/03/24 20:15:48;;;;;;;8.45;3.80;;;;;;;;;;5029669;28;20034;-84
2021/03/24 20:18:26;;;;;;;5.90;3.38;;;;;;;;;;5031427;28;20033;-84
2021/03/24 20:20:54;;;;;;;7.47;4.43;;;;;;;;;;5033833;28;20052;-84
2021/03/24 20:23:20;;;;;;;7.35;4.40;;;;;;;;;;5037622;28;20460;-84
2021/03/24 20:25:46;;;;;;;8.13;4.65;;;;;;;;;;5030538;28;20037;-84
2021/03/24 20:28:13;;;;;;;5.78;3.05;;;;;;;;;;5031654;28;20037;-84
2021/03/24 20:30:40;;;;;;;8.25;4.22;;;;;;;;;;5026851;28;20047;-84
2021/03/24 20:33:16;;;;;;;19.50;6.10;;;;;;;;;;5030444;28;20124;-84
2021/03/24 20:35:45;;;;;;;9.55;5.82;;;;;;;;;;5029963;28;20026;-84
2021/03/24 20:38:16;;;;;;;7.53;4.32;;;;;;;;;;5056734;28;20030;-84
2021/03/24 20:40:54;;;;;;;7.30;4.55;;;;;;;;;;5029971;28;20114;-83
2021/03/24 20:43:22;;;;;;;7.75;3.80;;;;;;;;;;5033751;28;20037;-85
2021/03/24 20:45:52;;;;;;;7.70;4.10;;;;;;;;;;5025168;28;20030;-84
2021/03/24 20:48:18;;;;;;;9.90;4.30;;;;;;;;;;5033080;28;20349;-83
2021/03/24 20:50:49;;;;;;;8.10;4.50;;;;;;;;;;5034066;28;20053;-84
2021/03/24 20:53:15;;;;;;;8.27;4.57;;;;;;;;;;5029736;28;20069;-84
2021/03/24 20:55:41;;;;;;;6.43;3.78;;;;;;;;;;5031437;28;20068;-84
2021/03/24 20:58:07;;;;;;;5.47;3.72;;;;;;;;;;5035672;28;20037;-83
2021/03/24 21:00:36;;;;;;;6.68;4.07;;;;;;;;;;5033097;28;20017;-83
2021/03/24 21:03:02;;;;;;;5.93;3.67;;;;;;;;;;5034185;28;20572;-84
2021/03/24 21:05:28;;;;;;;7.88;4.80;;;;;;;;;;5039318;28;20088;-84
2021/03/24 21:10:22;;;;;;;6.38;4.07;;;;;;;;;;5076191;28;25095;-84
2021/03/24 21:12:48;;;;;;;7.82;4.72;;;;;;;;;;5073567;28;20056;-83
2021/03/24 21:15:15;;;;;;;11.68;5.15;;;;;;;;;;5079594;28;20108;-83
2021/03/24 21:17:41;;;;;;;8.30;4.07;;;;;;;;;;5070355;28;20087;-83
2021/03/24 21:20:08;;;;;;;7.43;4.13;;;;;;;;;;5071535;28;20056;-84
2021/03/24 21:22:34;;;;;;;6.60;4.32;;;;;;;;;;5071982;28;20081;-83
2021/03/24 21:25:01;;;;;;;7.40;4.18;;;;;;;;;;5067767;28;20021;-83
2021/03/24 21:27:27;;;;;;;8.48;4.82;;;;;;;;;;5068785;28;20033;-85
2021/03/24 21:29:52;;;;;;;8.15;4.28;;;;;;;;;;5101490;28;20067;-84
2021/03/24 21:32:18;;;;;;;8.25;3.38;;;;;;;;;;5075381;28;20043;-83